Terminal Aerodrome Forecast
Issued by NWS

Home | Current Version | Previous Version | Text Only | Print | Product List | Glossary On
Versions: 1 2 3 4 5 6 7 8 9 10 11 12 13 14 15 16 17 18 19
000
FTAK31 PAJN 280500
TAFAKT
TAF
PAKT 280531Z 2806/2906 00000KT P6SM FEW060
     FM280900 14005KT P6SM FEW005 FEW200
     FM281700 14010G20KT P6SM VCSH BKN050 OVC080
     FM281900 14015G25KT P6SM -RA BKN025 OVC050 WS020/14040KT
     FM282100 14020G30KT 4SM RA BR BKN015 OVC025
     FM290200 15015G25KT 5SM -RA BR BKN015 OVC025
      AMD LTD TO CLD VIS AND WIND 2806/2815=

USA.gov is the U.S. government's official web portal to all federal, state and local government web resources and services.